createdAt,value
2018-07-23T00:00:50.002Z,24.98
2018-07-23T00:01:49.977Z,25.08
2018-07-23T00:02:49.966Z,25.07
2018-07-23T00:03:49.957Z,25.01
2018-07-23T00:04:49.941Z,25.04
2018-07-23T00:05:49.946Z,24.92
2018-07-23T00:06:49.927Z,25.12
2018-07-23T00:07:49.911Z,25.09
2018-07-23T00:08:49.899Z,25.04
2018-07-23T00:09:49.886Z,25.09
2018-07-23T00:10:49.890Z,25.07
2018-07-23T00:11:49.868Z,25.01
2018-07-23T00:12:49.861Z,25.04
2018-07-23T00:13:49.850Z,25.07
2018-07-23T00:14:49.834Z,24.99
2018-07-23T00:15:49.836Z,25.05
2018-07-23T00:16:49.812Z,25.08
2018-07-23T00:17:49.801Z,25.14
2018-07-23T00:18:49.798Z,25.08
2018-07-23T00:19:49.782Z,25.05
2018-07-23T00:20:49.780Z,25.04
2018-07-23T00:21:49.758Z,25.12
2018-07-23T00:22:49.743Z,25.04
2018-07-23T00:23:49.734Z,25.02
2018-07-23T00:24:49.725Z,25.04
2018-07-23T00:25:49.725Z,25.08
2018-07-23T00:26:49.705Z,25.04
2018-07-23T00:27:49.691Z,24.99
2018-07-23T00:28:49.679Z,24.99
2018-07-23T00:29:49.670Z,25.02
2018-07-23T00:30:49.676Z,24.93
2018-07-23T00:31:49.647Z,24.94
2018-07-23T00:32:49.634Z,25.05
2018-07-23T00:33:49.625Z,24.98
2018-07-23T00:34:49.612Z,25.02
2018-07-23T00:35:49.610Z,24.99
2018-07-23T00:36:49.594Z,24.97
2018-07-23T00:37:49.580Z,24.89
2018-07-23T00:38:49.569Z,24.89
2018-07-23T00:39:49.556Z,24.92
2018-07-23T00:40:49.558Z,24.93
2018-07-23T00:41:49.537Z,24.89
2018-07-23T00:42:49.523Z,24.92
2018-07-23T00:43:49.513Z,25.04
2018-07-23T00:44:49.505Z,24.92
2018-07-23T00:45:49.504Z,24.90
2018-07-23T00:46:49.479Z,24.89
2018-07-23T00:47:49.471Z,24.92
2018-07-23T00:48:49.458Z,24.93
2018-07-23T00:49:49.447Z,24.90
2018-07-23T00:50:49.450Z,24.89
2018-07-23T00:51:49.426Z,24.94
2018-07-23T00:52:49.415Z,24.92
2018-07-23T00:53:49.405Z,24.89
2018-07-23T00:54:49.393Z,24.94
2018-07-23T00:55:49.394Z,24.93
2018-07-23T00:56:49.368Z,24.94
2018-07-23T00:57:49.360Z,24.97
2018-07-23T00:58:49.347Z,24.87
2018-07-23T00:59:49.338Z,24.94
2018-07-23T01:00:49.343Z,24.86
2018-07-23T01:01:49.314Z,24.92
2018-07-23T01:02:49.301Z,24.93
2018-07-23T01:03:49.292Z,24.87
2018-07-23T01:04:49.284Z,24.86
2018-07-23T01:05:49.288Z,24.89
2018-07-23T01:06:49.260Z,24.87
2018-07-23T01:07:49.250Z,24.92
2018-07-23T01:08:49.237Z,24.94
2018-07-23T01:09:49.233Z,24.84
2018-07-23T01:10:49.230Z,24.89
2018-07-23T01:11:49.206Z,24.86
2018-07-23T01:12:49.195Z,24.89
2018-07-23T01:13:49.183Z,24.84
2018-07-23T01:14:49.171Z,24.83
2018-07-23T01:15:49.176Z,24.84
2018-07-23T01:16:49.150Z,24.90
2018-07-23T01:17:49.139Z,24.80
2018-07-23T01:18:49.128Z,24.86
2018-07-23T01:19:49.117Z,24.82
2018-07-23T01:20:49.142Z,24.80
2018-07-23T01:21:49.094Z,24.83
2018-07-23T01:22:49.085Z,24.80
2018-07-23T01:23:49.078Z,24.77
2018-07-23T01:24:49.064Z,24.86
2018-07-23T01:25:49.052Z,24.80
2018-07-23T01:26:49.053Z,24.74
2018-07-23T01:27:49.028Z,24.80
2018-07-23T01:28:49.021Z,24.68
2018-07-23T01:29:49.009Z,24.70
2018-07-23T01:30:48.995Z,24.66
2018-07-23T01:31:49.010Z,24.63
2018-07-23T01:32:48.973Z,24.61
2018-07-23T01:33:48.963Z,24.66
2018-07-23T01:34:48.953Z,24.53
2018-07-23T01:35:48.942Z,24.64
2018-07-23T01:36:48.944Z,24.64
2018-07-23T01:37:48.919Z,24.56
2018-07-23T01:38:48.905Z,24.59
2018-07-23T01:39:48.896Z,24.59
2018-07-23T01:40:48.885Z,24.60
2018-07-23T01:41:48.888Z,24.64
2018-07-23T01:42:48.862Z,24.59
2018-07-23T01:43:48.851Z,24.56
2018-07-23T01:44:48.840Z,24.51
2018-07-23T01:45:48.830Z,24.56
2018-07-23T01:46:48.834Z,24.59
2018-07-23T01:47:48.808Z,24.66
2018-07-23T01:48:48.797Z,24.56
2018-07-23T01:49:48.785Z,24.52
2018-07-23T01:50:48.777Z,24.59
2018-07-23T01:51:48.777Z,24.53
2018-07-23T01:52:48.752Z,24.55
2018-07-23T01:53:48.743Z,24.51
2018-07-23T01:54:48.731Z,24.56
2018-07-23T01:55:48.720Z,24.53
2018-07-23T01:56:48.725Z,24.53
2018-07-23T01:57:48.696Z,24.63
2018-07-23T01:58:48.688Z,24.53
2018-07-23T01:59:48.673Z,24.53
2018-07-23T02:00:48.659Z,24.53
2018-07-23T02:01:48.664Z,24.55
2018-07-23T02:02:48.638Z,24.52
2018-07-23T02:03:48.629Z,24.41
2018-07-23T02:04:48.617Z,24.46
2018-07-23T02:05:48.605Z,24.48
2018-07-23T02:06:49.264Z,24.42
2018-07-23T02:07:48.584Z,24.37
2018-07-23T02:08:48.573Z,24.37
2018-07-23T02:09:48.564Z,24.42
2018-07-23T02:10:48.550Z,24.37
2018-07-23T02:11:48.554Z,24.39
2018-07-23T02:12:48.530Z,24.37
2018-07-23T02:13:48.515Z,24.39
2018-07-23T02:14:48.509Z,24.37
2018-07-23T02:15:48.494Z,24.39
2018-07-23T02:16:48.497Z,24.39
2018-07-23T02:17:48.472Z,24.34
2018-07-23T02:18:48.462Z,24.42
2018-07-23T02:19:48.449Z,24.34
2018-07-23T02:20:48.438Z,24.45
2018-07-23T02:21:48.442Z,24.33
2018-07-23T02:22:48.419Z,24.42
2018-07-23T02:23:48.405Z,24.39
2018-07-23T02:24:48.398Z,24.33
2018-07-23T02:25:48.384Z,24.34
2018-07-23T02:26:48.389Z,24.34
2018-07-23T02:27:48.359Z,24.37
2018-07-23T02:28:48.350Z,24.36
2018-07-23T02:29:48.341Z,24.36
2018-07-23T02:30:48.328Z,24.34
2018-07-23T02:31:48.328Z,24.36
2018-07-23T02:32:48.304Z,24.39
2018-07-23T02:33:48.296Z,24.26
2018-07-23T02:34:48.286Z,24.29
2018-07-23T02:35:48.272Z,24.26
2018-07-23T02:36:48.275Z,24.26
2018-07-23T02:37:48.251Z,24.33
2018-07-23T02:38:48.240Z,24.27
2018-07-23T02:39:48.229Z,24.26
2018-07-23T02:40:48.217Z,24.23
2018-07-23T02:41:48.224Z,24.23
2018-07-23T02:42:48.195Z,24.23
2018-07-23T02:43:48.185Z,24.23
2018-07-23T02:44:48.172Z,24.16
2018-07-23T02:45:48.196Z,24.18
2018-07-23T02:46:48.164Z,24.19
2018-07-23T02:47:48.140Z,24.23
2018-07-23T02:48:48.128Z,24.19
2018-07-23T02:49:48.117Z,24.24
2018-07-23T02:50:48.107Z,24.19
2018-07-23T02:51:48.108Z,24.21
2018-07-23T02:52:48.088Z,24.18
2018-07-23T02:53:48.069Z,24.14
2018-07-23T02:54:48.066Z,24.08
2018-07-23T02:55:48.051Z,24.05
2018-07-23T02:56:48.069Z,24.08
2018-07-23T02:57:48.027Z,24.14
2018-07-23T02:58:48.016Z,24.15
2018-07-23T02:59:48.007Z,24.12
2018-07-23T03:00:47.994Z,24.11
2018-07-23T03:01:47.983Z,24.11
2018-07-23T03:02:47.983Z,24.09
2018-07-23T03:03:47.963Z,24.08
2018-07-23T03:04:47.947Z,24.06
2018-07-23T03:05:47.941Z,24.04
2018-07-23T03:06:47.927Z,24.16
2018-07-23T03:07:47.934Z,24.06
2018-07-23T03:08:47.904Z,24.14
2018-07-23T03:09:47.894Z,24.08
2018-07-23T03:10:47.886Z,24.11
2018-07-23T03:11:47.875Z,24.08
2018-07-23T03:12:47.872Z,24.11
2018-07-23T03:13:47.848Z,24.06
2018-07-23T03:14:47.839Z,24.16
2018-07-23T03:15:47.828Z,24.15
2018-07-23T03:16:47.820Z,24.05
2018-07-23T03:17:47.817Z,24.11
2018-07-23T03:18:47.795Z,24.11
2018-07-23T03:19:47.783Z,24.06
2018-07-23T03:20:47.769Z,24.11
2018-07-23T03:21:47.844Z,24.06
2018-07-23T03:22:47.755Z,24.05
2018-07-23T03:23:47.741Z,24.14
2018-07-23T03:24:47.724Z,24.12
2018-07-23T03:25:47.714Z,24.11
2018-07-23T03:26:47.709Z,24.12
2018-07-23T03:27:47.705Z,24.04
2018-07-23T03:28:47.682Z,24.09
2018-07-23T03:29:47.668Z,24.05
2018-07-23T03:30:47.660Z,24.11
2018-07-23T03:31:47.655Z,24.09
2018-07-23T03:32:47.655Z,24.11
2018-07-23T03:33:47.627Z,24.15
2018-07-23T03:34:47.614Z,24.11
2018-07-23T03:35:47.603Z,24.15
2018-07-23T03:36:47.590Z,24.11
2018-07-23T03:37:47.592Z,24.11
2018-07-23T03:38:47.569Z,24.06
2018-07-23T03:39:47.558Z,24.06
2018-07-23T03:40:47.552Z,24.12
2018-07-23T03:41:47.532Z,24.04
2018-07-23T03:42:47.537Z,24.09
2018-07-23T03:43:47.510Z,24.09
2018-07-23T03:44:47.499Z,24.12
2018-07-23T03:45:47.494Z,24.08
2018-07-23T03:46:47.480Z,24.08
2018-07-23T03:47:47.482Z,24.08
2018-07-23T03:48:47.455Z,24.08
2018-07-23T03:49:47.445Z,24.08
2018-07-23T03:50:47.431Z,24.14
2018-07-23T03:51:47.422Z,24.06
2018-07-23T03:52:47.423Z,24.08
2018-07-23T03:53:47.399Z,24.14
2018-07-23T03:54:47.387Z,24.09
2018-07-23T03:55:47.380Z,24.08
2018-07-23T03:56:47.368Z,24.08
2018-07-23T03:57:47.369Z,24.12
2018-07-23T03:58:47.348Z,24.09
2018-07-23T03:59:47.332Z,24.16
2018-07-23T04:00:47.322Z,24.15
2018-07-23T04:01:47.311Z,24.09
2018-07-23T04:02:47.312Z,24.12
2018-07-23T04:03:47.290Z,24.16
2018-07-23T04:04:47.279Z,24.16
2018-07-23T04:05:47.263Z,24.19
2018-07-23T04:06:47.254Z,24.24
2018-07-23T04:07:47.252Z,24.16
2018-07-23T04:08:47.231Z,24.27
2018-07-23T04:09:47.219Z,24.23
2018-07-23T04:10:47.218Z,24.29
2018-07-23T04:11:47.204Z,24.21
2018-07-23T04:12:47.197Z,24.23
2018-07-23T04:13:47.179Z,24.30
2018-07-23T04:14:47.168Z,24.26
2018-07-23T04:15:47.153Z,24.27
2018-07-23T04:16:47.141Z,24.31
2018-07-23T04:17:47.144Z,24.24
2018-07-23T04:18:47.123Z,24.30
2018-07-23T04:19:47.109Z,24.30
2018-07-23T04:20:47.102Z,24.37
2018-07-23T04:21:47.085Z,24.27
2018-07-23T04:22:47.085Z,24.30
2018-07-23T04:23:47.067Z,24.36
2018-07-23T04:24:47.051Z,24.36
2018-07-23T04:25:47.038Z,24.37
2018-07-23T04:26:47.032Z,24.33
2018-07-23T04:27:47.033Z,24.34
2018-07-23T04:28:47.009Z,24.34
2018-07-23T04:29:46.996Z,24.33
2018-07-23T04:30:46.986Z,24.44
2018-07-23T04:31:46.977Z,24.39
2018-07-23T04:32:46.989Z,24.42
2018-07-23T04:33:46.953Z,24.41
2018-07-23T04:34:46.942Z,24.46
2018-07-23T04:35:46.929Z,24.42
2018-07-23T04:36:46.919Z,24.49
2018-07-23T04:37:46.934Z,24.44
2018-07-23T04:38:46.913Z,24.41
2018-07-23T04:39:46.886Z,24.49
2018-07-23T04:40:46.875Z,24.39
2018-07-23T04:41:46.862Z,24.49
2018-07-23T04:42:46.855Z,24.48
2018-07-23T04:43:46.857Z,24.44
2018-07-23T04:44:46.833Z,24.42
2018-07-23T04:45:46.819Z,24.44
2018-07-23T04:46:46.811Z,24.45
2018-07-23T04:47:46.798Z,24.53
2018-07-23T04:48:46.798Z,24.51
2018-07-23T04:49:46.776Z,24.48
2018-07-23T04:50:46.763Z,24.53
2018-07-23T04:51:46.754Z,24.59
2018-07-23T04:52:46.746Z,24.51
2018-07-23T04:53:46.746Z,24.51
2018-07-23T04:54:46.723Z,24.52
2018-07-23T04:55:46.707Z,24.56
2018-07-23T04:56:46.767Z,24.55
2018-07-23T04:57:46.691Z,24.55
2018-07-23T04:58:46.692Z,24.59
2018-07-23T04:59:46.669Z,24.55
2018-07-23T05:00:46.656Z,24.59
2018-07-23T05:01:46.644Z,24.59
2018-07-23T05:02:46.631Z,24.59
2018-07-23T05:03:46.633Z,24.64
2018-07-23T05:04:46.611Z,24.60
2018-07-23T05:05:46.600Z,24.51
2018-07-23T05:06:46.597Z,24.61
2018-07-23T05:07:46.577Z,24.61
2018-07-23T05:08:46.679Z,24.56
2018-07-23T05:09:46.555Z,24.59
2018-07-23T05:10:46.542Z,24.68
2018-07-23T05:11:46.537Z,24.51
2018-07-23T05:12:46.525Z,24.64
2018-07-23T05:13:46.526Z,24.63
2018-07-23T05:14:46.499Z,24.67
2018-07-23T05:15:46.489Z,24.61
2018-07-23T05:16:46.480Z,24.70
2018-07-23T05:17:46.469Z,24.67
2018-07-23T05:18:46.467Z,24.66
2018-07-23T05:19:46.444Z,24.79
2018-07-23T05:20:46.434Z,24.79
2018-07-23T05:21:46.422Z,24.74
2018-07-23T05:22:46.409Z,24.70
2018-07-23T05:23:46.418Z,24.77
2018-07-23T05:24:46.389Z,24.83
2018-07-23T05:25:46.378Z,24.80
2018-07-23T05:26:46.368Z,24.83
2018-07-23T05:27:46.356Z,24.82
2018-07-23T05:28:46.359Z,24.86
2018-07-23T05:29:46.338Z,24.84
2018-07-23T05:30:46.328Z,24.84
2018-07-23T05:31:46.335Z,24.84
2018-07-23T05:32:46.303Z,24.89
2018-07-23T05:33:46.305Z,24.84
2018-07-23T05:34:46.281Z,24.93
2018-07-23T05:35:46.267Z,24.93
2018-07-23T05:36:46.259Z,24.90
2018-07-23T05:37:46.246Z,24.86
2018-07-23T05:38:46.248Z,24.93
2018-07-23T05:39:46.226Z,24.87
2018-07-23T05:40:46.213Z,24.97
2018-07-23T05:41:46.203Z,25.02
2018-07-23T05:42:46.192Z,25.01
2018-07-23T05:43:46.193Z,25.04
2018-07-23T05:44:46.168Z,25.16
2018-07-23T05:45:46.801Z,25.12
2018-07-23T05:46:46.144Z,25.19
2018-07-23T05:47:46.132Z,25.22
2018-07-23T05:48:46.139Z,25.26
2018-07-23T05:49:46.113Z,25.16
2018-07-23T05:50:46.105Z,25.29
2018-07-23T05:51:46.089Z,25.35
2018-07-23T05:52:46.080Z,25.44
2018-07-23T05:53:46.085Z,25.30
2018-07-23T05:54:46.061Z,25.34
2018-07-23T05:55:46.048Z,25.35
2018-07-23T05:56:46.041Z,25.39
2018-07-23T05:57:46.033Z,25.39
2018-07-23T05:58:46.062Z,25.44
2018-07-23T05:59:46.002Z,25.46
2018-07-23T06:00:45.992Z,25.48
2018-07-23T06:01:45.981Z,25.53
2018-07-23T06:02:45.970Z,25.49
2018-07-23T06:03:46.044Z,25.53
2018-07-23T06:04:45.945Z,25.60
2018-07-23T06:05:45.934Z,25.60
2018-07-23T06:06:46.008Z,25.57
2018-07-23T06:07:45.911Z,25.61
2018-07-23T06:08:45.916Z,25.66
2018-07-23T06:09:45.893Z,25.60
2018-07-23T06:10:45.879Z,25.60
2018-07-23T06:11:45.868Z,25.69
2018-07-23T06:12:45.860Z,25.71
2018-07-23T06:13:45.849Z,25.71
2018-07-23T06:14:45.845Z,25.67
2018-07-23T06:15:45.824Z,25.71
2018-07-23T06:16:45.810Z,25.69
2018-07-23T06:17:45.807Z,25.83
2018-07-23T06:18:45.799Z,25.76
2018-07-23T06:19:45.794Z,25.79
2018-07-23T06:20:45.770Z,25.79
2018-07-23T06:21:45.755Z,25.82
2018-07-23T06:22:45.749Z,25.82
2018-07-23T06:23:45.736Z,25.82
2018-07-23T06:24:45.741Z,25.79
2018-07-23T06:25:45.787Z,25.81
2018-07-23T06:26:45.702Z,25.82
2018-07-23T06:27:45.692Z,25.82
2018-07-23T06:28:45.683Z,25.82
2018-07-23T06:29:45.678Z,25.86
2018-07-23T06:30:45.659Z,25.86
2018-07-23T06:31:45.647Z,25.83
2018-07-23T06:32:45.639Z,25.82
2018-07-23T06:33:45.707Z,25.85
2018-07-23T06:34:45.623Z,25.81
2018-07-23T06:35:45.602Z,25.81
2018-07-23T06:36:45.591Z,25.83
2018-07-23T06:37:45.582Z,25.82
2018-07-23T06:38:45.568Z,25.79
2018-07-23T06:39:45.573Z,25.67
2018-07-23T06:40:45.545Z,25.66
2018-07-23T06:41:45.534Z,25.71
2018-07-23T06:42:45.524Z,25.69
2018-07-23T06:43:45.513Z,25.66
2018-07-23T06:44:45.513Z,25.71
2018-07-23T06:45:45.494Z,25.71
2018-07-23T06:46:45.564Z,25.66
2018-07-23T06:47:45.474Z,25.69
2018-07-23T06:48:45.457Z,25.64
2018-07-23T06:49:45.457Z,25.63
2018-07-23T06:50:45.437Z,25.66
2018-07-23T06:51:45.423Z,25.72
2018-07-23T06:52:45.414Z,25.71
2018-07-23T06:53:45.403Z,25.69
2018-07-23T06:54:45.403Z,25.78
2018-07-23T06:55:45.381Z,25.79
2018-07-23T06:56:45.384Z,25.81
2018-07-23T06:57:45.359Z,25.93
2018-07-23T06:58:45.353Z,25.96
2018-07-23T06:59:45.350Z,26.03
2018-07-23T07:00:45.323Z,26.23
2018-07-23T07:01:45.314Z,26.17
2018-07-23T07:02:45.305Z,26.32
2018-07-23T07:03:45.294Z,26.32
2018-07-23T07:04:45.295Z,26.34
2018-07-23T07:05:45.272Z,26.46
2018-07-23T07:06:45.260Z,26.57
2018-07-23T07:07:45.248Z,26.66
2018-07-23T07:08:45.254Z,26.60
2018-07-23T07:09:45.240Z,26.73
2018-07-23T07:10:45.214Z,26.73
2018-07-23T07:11:45.205Z,26.81
2018-07-23T07:12:45.193Z,26.91
2018-07-23T07:13:45.184Z,26.97
2018-07-23T07:14:45.186Z,26.96
2018-07-23T07:15:45.160Z,27.11
2018-07-23T07:16:45.153Z,27.16
2018-07-23T07:17:45.138Z,27.23
2018-07-23T07:18:45.125Z,27.25
2018-07-23T07:19:45.126Z,27.39
2018-07-23T07:20:45.108Z,27.39
2018-07-23T07:21:45.093Z,27.42
2018-07-23T07:22:45.083Z,27.48
2018-07-23T07:23:45.072Z,27.59
2018-07-23T07:24:45.073Z,27.62
2018-07-23T07:25:45.048Z,27.59
2018-07-23T07:26:45.037Z,27.53
2018-07-23T07:27:45.030Z,27.55
2018-07-23T07:28:45.013Z,27.58
2018-07-23T07:29:45.021Z,27.55
2018-07-23T07:30:44.995Z,27.48
2018-07-23T07:31:44.980Z,27.50
2018-07-23T07:32:44.971Z,27.40
2018-07-23T07:33:44.963Z,27.34
2018-07-23T07:34:44.993Z,27.38
2018-07-23T07:35:44.965Z,27.23
2018-07-23T07:36:44.928Z,27.20
2018-07-23T07:37:44.917Z,27.27
2018-07-23T07:38:44.908Z,27.16
2018-07-23T07:39:44.905Z,27.13
2018-07-23T07:40:44.883Z,27.09
2018-07-23T07:41:44.871Z,27.06
2018-07-23T07:42:44.857Z,26.98
2018-07-23T07:43:44.851Z,26.88
2018-07-23T07:44:44.870Z,26.87
2018-07-23T07:45:44.829Z,26.83
2018-07-23T07:46:44.837Z,26.71
2018-07-23T07:47:44.807Z,26.64
2018-07-23T07:48:44.793Z,26.60
2018-07-23T07:49:44.783Z,26.60
2018-07-23T07:50:44.787Z,26.59
2018-07-23T07:51:44.760Z,26.54
2018-07-23T07:52:44.762Z,26.51
2018-07-23T07:53:44.744Z,26.53
2018-07-23T07:54:44.730Z,26.36
2018-07-23T07:55:44.728Z,26.44
2018-07-23T07:56:44.709Z,26.38
2018-07-23T07:57:44.698Z,26.38
2018-07-23T07:58:44.695Z,26.28
2018-07-23T07:59:44.673Z,26.34
2018-07-23T08:00:44.676Z,26.29
2018-07-23T08:01:44.653Z,26.16
2018-07-23T08:02:44.645Z,26.19
2018-07-23T08:03:44.634Z,26.16
2018-07-23T08:04:44.619Z,26.16
2018-07-23T08:05:44.621Z,26.28
2018-07-23T08:06:44.597Z,26.20
2018-07-23T08:07:44.586Z,26.17
2018-07-23T08:08:44.577Z,26.31
2018-07-23T08:09:44.563Z,26.31
2018-07-23T08:10:44.568Z,26.23
2018-07-23T08:11:44.545Z,26.27
2018-07-23T08:12:44.533Z,26.32
2018-07-23T08:13:44.521Z,26.32
2018-07-23T08:14:44.507Z,26.38
2018-07-23T08:15:44.518Z,26.35
2018-07-23T08:16:44.491Z,26.35
2018-07-23T08:17:44.506Z,26.31
2018-07-23T08:18:44.469Z,26.39
2018-07-23T08:19:44.460Z,26.35
2018-07-23T08:20:44.462Z,26.39
2018-07-23T08:21:44.436Z,26.44
2018-07-23T08:22:44.424Z,26.41
2018-07-23T08:23:44.409Z,26.42
2018-07-23T08:24:44.402Z,26.46
2018-07-23T08:25:44.401Z,26.47
2018-07-23T08:26:44.378Z,26.46
2018-07-23T08:27:44.374Z,26.51
2018-07-23T08:28:44.359Z,26.57
2018-07-23T08:29:44.346Z,26.61
2018-07-23T08:30:44.347Z,26.56
2018-07-23T08:31:44.360Z,26.60
2018-07-23T08:32:44.311Z,26.61
2018-07-23T08:33:44.301Z,26.61
2018-07-23T08:34:44.289Z,26.61
2018-07-23T08:35:44.291Z,26.54
2018-07-23T08:36:44.273Z,26.54
2018-07-23T08:37:44.258Z,26.69
2018-07-23T08:38:44.252Z,26.60
2018-07-23T08:39:44.237Z,26.61
2018-07-23T08:40:44.237Z,26.64
2018-07-23T08:41:44.214Z,26.66
2018-07-23T08:42:44.241Z,26.73
2018-07-23T08:43:44.193Z,26.69
2018-07-23T08:44:44.195Z,26.64
2018-07-23T08:45:44.181Z,26.71
2018-07-23T08:46:44.160Z,26.68
2018-07-23T08:47:44.150Z,26.76
2018-07-23T08:48:44.141Z,26.72
2018-07-23T08:49:44.127Z,26.66
2018-07-23T08:50:44.128Z,26.73
2018-07-23T08:51:44.107Z,26.79
2018-07-23T08:52:44.098Z,26.75
2018-07-23T08:53:44.088Z,26.79
2018-07-23T08:54:44.077Z,26.84
2018-07-23T08:55:44.081Z,26.86
2018-07-23T08:56:44.098Z,26.81
2018-07-23T08:57:44.041Z,26.88
2018-07-23T08:58:44.028Z,26.73
2018-07-23T08:59:44.017Z,26.88
2018-07-23T09:00:44.019Z,26.83
2018-07-23T09:01:43.996Z,26.90
2018-07-23T09:02:43.992Z,26.88
2018-07-23T09:03:43.975Z,26.88
2018-07-23T09:04:43.964Z,26.88
2018-07-23T09:05:43.964Z,26.90
2018-07-23T09:06:43.943Z,26.90
2018-07-23T09:07:43.932Z,26.87
2018-07-23T09:08:43.991Z,26.91
2018-07-23T09:09:43.907Z,26.93
2018-07-23T09:10:43.912Z,26.98
2018-07-23T09:11:43.886Z,26.94
2018-07-23T09:12:43.874Z,26.96
2018-07-23T09:13:43.866Z,26.93
2018-07-23T09:14:43.854Z,27.06
2018-07-23T09:15:43.869Z,26.91
2018-07-23T09:16:43.831Z,26.98
2018-07-23T09:17:43.818Z,26.91
2018-07-23T09:18:43.809Z,26.93
2018-07-23T09:19:43.795Z,26.93
2018-07-23T09:20:43.786Z,27.02
2018-07-23T09:21:43.791Z,26.97
2018-07-23T09:22:43.763Z,27.09
2018-07-23T09:23:43.805Z,27.12
2018-07-23T09:24:43.743Z,27.05
2018-07-23T09:25:43.730Z,27.01
2018-07-23T09:26:43.735Z,27.01
2018-07-23T09:27:43.705Z,27.02
2018-07-23T09:28:43.695Z,27.02
2018-07-23T09:29:43.685Z,27.09
2018-07-23T09:30:43.676Z,27.01
2018-07-23T09:31:43.678Z,27.05
2018-07-23T09:32:43.655Z,27.06
2018-07-23T09:33:43.641Z,27.11
2018-07-23T09:34:43.634Z,27.09
2018-07-23T09:35:43.619Z,27.09
2018-07-23T09:36:43.623Z,27.16
2018-07-23T09:37:43.604Z,27.13
2018-07-23T09:38:43.586Z,27.15
2018-07-23T09:39:43.593Z,27.13
2018-07-23T09:40:43.566Z,27.12
2018-07-23T09:41:43.556Z,27.18
2018-07-23T09:42:43.545Z,27.18
2018-07-23T09:43:43.533Z,27.24
2018-07-23T09:44:43.533Z,27.23
2018-07-23T09:45:43.538Z,27.24
2018-07-23T09:46:43.501Z,27.21
2018-07-23T09:47:43.485Z,27.24
2018-07-23T09:48:43.477Z,27.25
2018-07-23T09:49:43.479Z,27.24
2018-07-23T09:50:43.453Z,27.23
2018-07-23T09:51:43.442Z,27.28
2018-07-23T09:52:43.462Z,27.23
2018-07-23T09:53:43.423Z,27.30
2018-07-23T09:54:43.424Z,27.31
2018-07-23T09:55:43.399Z,27.27
2018-07-23T09:56:43.387Z,27.34
2018-07-23T09:57:43.379Z,27.42
2018-07-23T09:58:43.367Z,27.38
2018-07-23T09:59:43.396Z,27.38
2018-07-23T10:00:43.346Z,27.35
2018-07-23T10:01:43.330Z,27.39
2018-07-23T10:02:43.321Z,27.38
2018-07-23T10:03:43.318Z,27.38
2018-07-23T10:04:43.300Z,27.42
2018-07-23T10:05:43.306Z,27.45
2018-07-23T10:06:43.276Z,27.40
2018-07-23T10:07:43.267Z,27.39
2018-07-23T10:08:43.256Z,27.45
2018-07-23T10:09:43.245Z,27.42
2018-07-23T10:10:43.249Z,27.50
2018-07-23T10:11:43.222Z,27.48
2018-07-23T10:12:43.214Z,27.48
2018-07-23T10:13:43.206Z,27.43
2018-07-23T10:14:43.188Z,27.43
2018-07-23T10:15:43.191Z,27.52
2018-07-23T10:16:43.168Z,27.45
2018-07-23T10:17:43.159Z,27.48
2018-07-23T10:18:43.146Z,27.49
2018-07-23T10:19:43.136Z,27.50
2018-07-23T10:20:43.138Z,27.43
2018-07-23T10:21:43.112Z,27.43
2018-07-23T10:22:43.101Z,27.50
2018-07-23T10:23:43.092Z,27.58
2018-07-23T10:24:43.080Z,27.50
2018-07-23T10:25:43.083Z,27.58
2018-07-23T10:26:43.061Z,27.52
2018-07-23T10:27:43.047Z,27.49
2018-07-23T10:28:43.037Z,27.53
2018-07-23T10:29:43.028Z,27.61
2018-07-23T10:30:43.029Z,27.48
2018-07-23T10:31:43.000Z,27.46
2018-07-23T10:32:42.992Z,27.53
2018-07-23T10:33:42.985Z,27.58
2018-07-23T10:34:42.967Z,27.61
2018-07-23T10:35:42.991Z,27.58
2018-07-23T10:36:42.951Z,27.59
2018-07-23T10:37:42.938Z,27.63
2018-07-23T10:38:42.927Z,27.53
2018-07-23T10:39:42.916Z,27.58
2018-07-23T10:40:42.925Z,27.63
2018-07-23T10:41:42.893Z,27.53
2018-07-23T10:42:42.883Z,27.53
2018-07-23T10:43:42.873Z,27.65
2018-07-23T10:44:42.861Z,27.68
2018-07-23T10:45:42.865Z,27.69
2018-07-23T10:46:42.839Z,27.68
2018-07-23T10:47:42.829Z,27.68
2018-07-23T10:48:42.815Z,27.63
2018-07-23T10:49:42.806Z,27.72
2018-07-23T10:50:42.809Z,27.76
2018-07-23T10:51:42.786Z,27.66
2018-07-23T10:52:42.771Z,27.76
2018-07-23T10:53:42.762Z,27.66
2018-07-23T10:54:42.748Z,27.66
2018-07-23T10:55:42.761Z,27.80
2018-07-23T10:56:42.726Z,27.74
2018-07-23T10:57:42.716Z,27.77
2018-07-23T10:58:42.708Z,27.80
2018-07-23T10:59:42.693Z,27.77
2018-07-23T11:00:42.684Z,27.74
2018-07-23T11:01:42.687Z,27.78
2018-07-23T11:02:42.660Z,27.83
2018-07-23T11:03:42.651Z,27.78
2018-07-23T11:04:42.638Z,27.81
2018-07-23T11:05:42.630Z,27.78
2018-07-23T11:06:42.633Z,27.88
2018-07-23T11:07:42.607Z,27.88
2018-07-23T11:08:42.602Z,27.83
2018-07-23T11:09:42.584Z,27.87
2018-07-23T11:10:42.574Z,27.88
2018-07-23T11:11:42.575Z,27.86
2018-07-23T11:12:42.579Z,27.90
2018-07-23T11:13:42.538Z,27.91
2018-07-23T11:14:42.527Z,27.93
2018-07-23T11:15:42.516Z,27.90
2018-07-23T11:16:42.521Z,27.95
2018-07-23T11:17:42.493Z,27.87
2018-07-23T11:18:42.482Z,27.91
2018-07-23T11:19:42.469Z,27.95
2018-07-23T11:20:42.472Z,27.95
2018-07-23T11:21:42.466Z,27.95
2018-07-23T11:22:42.435Z,27.95
2018-07-23T11:23:42.422Z,27.95
2018-07-23T11:24:45.542Z,27.96
2018-07-23T11:25:42.406Z,27.91
2018-07-23T11:26:42.425Z,27.90
2018-07-23T11:27:42.393Z,27.87
2018-07-23T11:28:42.374Z,27.93
2018-07-23T11:29:42.356Z,27.93
2018-07-23T11:30:42.352Z,27.93
2018-07-23T11:31:42.340Z,27.90
2018-07-23T11:32:42.337Z,27.95
2018-07-23T11:33:42.316Z,27.93
2018-07-23T11:34:42.304Z,27.93
2018-07-23T11:35:42.292Z,27.88
2018-07-23T11:36:42.281Z,27.88
2018-07-23T11:37:42.285Z,27.96
2018-07-23T11:38:42.258Z,27.93
2018-07-23T11:39:42.252Z,27.93
2018-07-23T11:40:42.243Z,27.95
2018-07-23T11:41:42.226Z,27.95
2018-07-23T11:42:42.249Z,27.91
2018-07-23T11:43:42.203Z,27.96
2018-07-23T11:44:42.191Z,27.95
2018-07-23T11:45:42.181Z,27.98
2018-07-23T11:46:42.169Z,28.01
2018-07-23T11:47:42.195Z,28.05
2018-07-23T11:48:42.146Z,28.05
2018-07-23T11:49:42.134Z,27.99
2018-07-23T11:50:42.149Z,28.03
2018-07-23T11:51:42.112Z,28.02
2018-07-23T11:52:42.112Z,28.09
2018-07-23T11:53:42.156Z,28.09
2018-07-23T11:54:42.079Z,27.99
2018-07-23T11:55:42.072Z,28.08
2018-07-23T11:56:42.078Z,28.01
2018-07-23T11:57:42.044Z,28.21
2018-07-23T11:58:42.051Z,28.15
2018-07-23T11:59:42.026Z,28.17
2018-07-23T12:00:42.012Z,28.17
2018-07-23T12:01:42.043Z,28.15
2018-07-23T12:02:41.990Z,28.15
2018-07-23T12:03:41.994Z,28.21
2018-07-23T12:04:42.190Z,28.18
2018-07-23T12:05:41.956Z,28.13
2018-07-23T12:06:41.946Z,28.20
2018-07-23T12:07:41.940Z,28.14
2018-07-23T12:08:41.934Z,28.15
2018-07-23T12:09:41.915Z,28.15
2018-07-23T12:10:41.905Z,28.18
2018-07-23T12:11:41.893Z,28.24
2018-07-23T12:12:41.982Z,28.24
2018-07-23T12:13:41.930Z,28.21
2018-07-23T12:14:41.858Z,28.23
2018-07-23T12:15:41.847Z,28.11
2018-07-23T12:16:41.839Z,28.21
2018-07-23T12:17:41.915Z,28.13
2018-07-23T12:18:41.831Z,28.27
2018-07-23T12:19:41.804Z,28.21
2018-07-23T12:20:41.790Z,28.21
2018-07-23T12:21:41.792Z,28.23
2018-07-23T12:22:41.772Z,28.21
2018-07-23T12:23:41.789Z,28.24
2018-07-23T12:24:41.747Z,28.25
2018-07-23T12:25:41.735Z,28.32
2018-07-23T12:26:41.791Z,28.28
2018-07-23T12:27:41.714Z,28.35
2018-07-23T12:28:41.734Z,28.32
2018-07-23T12:29:41.694Z,28.32
2018-07-23T12:30:41.684Z,28.30
2018-07-23T12:31:41.674Z,28.32
2018-07-23T12:32:41.664Z,28.33
2018-07-23T12:33:41.658Z,28.38
2018-07-23T12:34:41.761Z,28.33
2018-07-23T12:35:42.057Z,28.38
2018-07-23T12:36:41.705Z,28.32
2018-07-23T12:37:41.603Z,28.38
2018-07-23T12:38:41.600Z,28.40
2018-07-23T12:39:41.644Z,28.35
2018-07-23T12:40:41.574Z,28.39
2018-07-23T12:41:41.567Z,28.36
2018-07-23T12:42:41.551Z,28.39
2018-07-23T12:43:41.542Z,28.43
2018-07-23T12:44:41.544Z,28.40
2018-07-23T12:45:41.517Z,28.38
2018-07-23T12:46:41.510Z,28.45
2018-07-23T12:47:41.499Z,28.32
2018-07-23T12:48:41.488Z,28.43
2018-07-23T12:49:41.489Z,28.43
2018-07-23T12:50:41.461Z,28.43
2018-07-23T12:51:41.457Z,28.39
2018-07-23T12:52:41.480Z,28.38